Time,TemperatureF,DewpointF,PressureIn,WindDirection,WindDirectionDegrees,WindSpeedMPH,WindSpeedGustMPH,Humidity,HourlyPrecipIn,Conditions,Clouds,dailyrainin,SoftwareType,DateUTC
2013-01-06 00:13:00,28.5,23.4,29.88,SW,236,1.2,1.2,81,0.00,,OVC020,0.00,VWS V14.01,2013-01-06 06:13:00,
2013-01-06 00:28:00,27.5,22.1,29.88,NNW,344,0.0,6.2,80,0.00,,OVC020,0.00,VWS V14.01,2013-01-06 06:28:00,
2013-01-06 00:43:00,26.7,21.4,29.88,NNW,329,2.5,13.8,80,0.00,,OVC020,0.00,VWS V14.01,2013-01-06 06:43:00,
2013-01-06 00:58:00,26.1,21.1,29.89,SSW,211,3.8,13.8,81,0.00,,OVC020,0.00,VWS V14.01,2013-01-06 06:58:00,
2013-01-06 01:13:00,25.7,20.4,29.90,West,271,2.5,13.8,80,0.00,,OVC020,0.00,VWS V14.01,2013-01-06 07:13:00,
2013-01-06 01:28:00,25.1,19.5,29.90,West,271,2.5,2.5,79,0.00,,OVC024,0.00,VWS V14.01,2013-01-06 07:28:00,
2013-01-06 01:43:00,24.6,18.7,29.89,NW,315,0.0,7.5,78,0.00,,OVC024,0.00,VWS V14.01,2013-01-06 07:43:00,
2013-01-06 01:58:00,24.0,18.1,29.90,WNW,284,0.0,6.2,78,0.00,,OVC090,0.00,VWS V14.01,2013-01-06 07:58:00,
2013-01-06 02:13:00,23.5,18.0,29.91,North,355,0.0,6.2,79,0.00,,OVC090,0.00,VWS V14.01,2013-01-06 08:13:00,
2013-01-06 02:28:00,22.9,17.4,29.90,WNW,291,0.0,5.0,79,0.00,,OVC110,0.00,VWS V14.01,2013-01-06 08:28:00,
2013-01-06 02:43:00,22.6,17.4,29.91,WSW,247,1.2,5.0,80,0.00,,OVC110,0.00,VWS V14.01,2013-01-06 08:43:00,
2013-01-06 02:58:00,22.2,17.3,29.91,West,267,0.0,8.8,81,0.00,,SCT110,0.00,VWS V14.01,2013-01-06 08:58:00,
2013-01-06 03:13:00,22.1,17.2,29.92,SW,234,1.2,7.5,81,0.00,,SCT026,0.00,VWS V14.01,2013-01-06 09:13:00,
2013-01-06 03:28:00,22.0,17.4,29.92,SW,214,3.8,11.2,82,0.00,,BKN080,0.00,VWS V14.01,2013-01-06 09:28:00,
2013-01-06 03:43:00,21.9,17.5,29.92,NW,304,0.0,11.2,83,0.00,,BKN080,0.00,VWS V14.01,2013-01-06 09:43:00,
2013-01-06 03:58:00,22.0,17.6,29.92,NNE,19,0.0,6.2,83,0.00,,BKN080,0.00,VWS V14.01,2013-01-06 09:58:00,
2013-01-06 04:13:00,22.0,17.9,29.92,NW,321,2.5,6.2,84,0.00,,OVC033,0.00,VWS V14.01,2013-01-06 10:13:00,
2013-01-06 04:28:00,22.2,18.1,29.92,North,355,1.2,6.2,84,0.00,,OVC035,0.00,VWS V14.01,2013-01-06 10:28:00,
2013-01-06 04:43:00,22.4,18.6,29.93,West,259,3.8,11.2,85,0.00,,OVC035,0.00,VWS V14.01,2013-01-06 10:43:00,
2013-01-06 04:58:00,22.7,19.1,29.93,NNW,330,3.8,7.5,86,0.00,,OVC033,0.00,VWS V14.01,2013-01-06 10:58:00,
2013-01-06 05:13:00,23.0,19.7,29.93,WSW,257,3.8,12.5,87,0.00,,OVC033,0.00,VWS V14.01,2013-01-06 11:13:00,
2013-01-06 05:28:00,23.1,20.1,29.94,North,355,0.0,8.8,88,0.00,,OVC030,0.00,VWS V14.01,2013-01-06 11:28:00,
2013-01-06 05:43:00,23.1,20.4,29.94,WNW,286,5.0,11.2,89,0.00,,OVC030,0.00,VWS V14.01,2013-01-06 11:43:00,
2013-01-06 05:58:00,22.9,20.1,29.95,WNW,287,0.0,12.5,89,0.00,,,0.00,VWS V14.01,2013-01-06 11:58:00,
2013-01-06 06:13:00,22.8,20.0,29.95,NNW,344,3.8,7.5,89,0.00,,OVC055,0.00,VWS V14.01,2013-01-06 12:13:00,
2013-01-06 06:28:00,22.6,19.9,29.96,North,351,1.2,6.2,89,0.00,,BKN055,0.00,VWS V14.01,2013-01-06 12:28:00,
2013-01-06 06:43:00,22.6,19.9,29.98,NW,308,0.0,7.5,89,0.00,,BKN055,0.00,VWS V14.01,2013-01-06 12:43:00,
2013-01-06 06:58:00,22.8,20.3,29.99,WNW,298,3.8,12.5,90,0.00,,CLR,0.00,VWS V14.01,2013-01-06 12:58:00,
2013-01-06 07:13:00,23.2,20.5,30.00,WNW,284,2.5,11.2,89,0.00,,SCT065,0.00,VWS V14.01,2013-01-06 13:13:00,
2013-01-06 07:28:00,23.3,20.5,30.01,NNW,348,2.5,11.2,89,0.00,,BKN065,0.00,VWS V14.01,2013-01-06 13:28:00,
2013-01-06 07:43:00,22.9,19.9,30.01,NW,315,2.5,11.2,88,0.00,,BKN065,0.00,VWS V14.01,2013-01-06 13:43:00,
2013-01-06 07:58:00,22.8,19.8,30.02,NNW,342,2.5,13.8,88,0.00,,OVC065,0.00,VWS V14.01,2013-01-06 13:58:00,
2013-01-06 08:13:00,22.9,19.9,30.02,NW,309,0.0,12.5,88,0.00,,OVC065,0.00,VWS V14.01,2013-01-06 14:13:00,
2013-01-06 08:28:00,23.2,20.2,30.03,NW,309,0.0,0.0,88,0.00,,SCT065,0.00,VWS V14.01,2013-01-06 14:28:00,
2013-01-06 08:43:00,23.8,20.8,30.05,NNW,337,3.8,11.2,88,0.00,,SCT065,0.00,VWS V14.01,2013-01-06 14:43:00,
2013-01-06 08:58:00,24.6,21.3,30.05,North,350,3.8,17.5,87,0.00,,CLR,0.00,VWS V14.01,2013-01-06 14:58:00,
2013-01-06 09:13:00,25.2,21.3,30.07,NNW,329,2.5,12.5,85,0.00,,CLR,0.00,VWS V14.01,2013-01-06 15:13:00,
2013-01-06 09:28:00,25.7,21.8,30.07,NNW,340,7.5,16.2,85,0.00,,CLR,0.00,VWS V14.01,2013-01-06 15:28:00,
2013-01-06 09:43:00,26.1,21.9,30.08,NW,323,2.5,15.0,84,0.00,,CLR,0.00,VWS V14.01,2013-01-06 15:43:00,
2013-01-06 09:58:00,26.6,22.1,30.09,WNW,287,2.5,18.8,83,0.00,,CLR,0.00,VWS V14.01,2013-01-06 15:58:00,
2013-01-06 10:13:00,26.9,22.1,30.10,NW,315,2.5,16.2,82,0.00,,CLR,0.00,VWS V14.01,2013-01-06 16:13:00,
2013-01-06 10:28:00,26.8,22.0,30.10,WNW,294,2.5,12.5,82,0.00,,CLR,0.00,VWS V14.01,2013-01-06 16:28:00,
2013-01-06 10:43:00,27.2,22.4,30.11,NW,309,0.0,15.0,82,0.00,,CLR,0.00,VWS V14.01,2013-01-06 16:43:00,
2013-01-06 10:58:00,27.9,22.8,30.11,SW,236,7.5,12.5,81,0.00,,CLR,0.00,VWS V14.01,2013-01-06 16:58:00,
2013-01-06 11:13:00,28.3,23.2,30.11,WNW,303,13.8,13.8,81,0.00,,CLR,0.00,VWS V14.01,2013-01-06 17:13:00,
2013-01-06 11:28:00,28.8,23.4,30.11,WSW,248,5.0,13.8,80,0.00,,CLR,0.00,VWS V14.01,2013-01-06 17:28:00,
2013-01-06 11:43:00,29.5,23.8,30.11,WNW,292,2.5,13.8,79,0.00,,CLR,0.00,VWS V14.01,2013-01-06 17:43:00,
2013-01-06 11:58:00,29.9,23.9,30.12,NW,305,3.8,11.2,78,0.00,,SCT024,0.00,VWS V14.01,2013-01-06 17:58:00,
2013-01-06 12:13:00,30.1,24.1,30.11,WNW,286,2.5,12.5,78,0.00,,BKN024,0.00,VWS V14.01,2013-01-06 18:13:00,
2013-01-06 12:28:00,30.5,24.2,30.11,WSW,242,3.8,15.0,77,0.00,,OVC026,0.00,VWS V14.01,2013-01-06 18:28:00,
2013-01-06 12:43:00,30.8,24.1,30.11,NW,325,3.8,8.8,76,0.00,,OVC026,0.00,VWS V14.01,2013-01-06 18:43:00,
2013-01-06 12:58:00,31.0,24.0,30.11,SW,220,5.0,12.5,75,0.00,,OVC032,0.00,VWS V14.01,2013-01-06 18:58:00,
2013-01-06 13:13:00,31.0,24.0,30.11,SSE,163,0.0,11.2,75,0.00,,OVC033,0.00,VWS V14.01,2013-01-06 19:13:00,
2013-01-06 13:28:00,31.0,24.0,30.12,NW,305,5.0,12.5,75,0.00,,OVC030,0.00,VWS V14.01,2013-01-06 19:28:00,
2013-01-06 13:43:00,31.4,24.1,30.12,North,5,1.2,15.0,74,0.00,,OVC030,0.00,VWS V14.01,2013-01-06 19:43:00,
2013-01-06 13:58:00,31.1,23.8,30.13,NW,325,5.0,10.0,74,0.00,,OVC030,0.00,VWS V14.01,2013-01-06 19:58:00,
2013-01-06 14:13:00,31.9,23.6,30.14,SSW,197,3.8,12.5,71,0.00,,BKN028,0.00,VWS V14.01,2013-01-06 20:13:00,
2013-01-06 14:28:00,31.3,23.3,30.14,SW,223,0.0,8.8,72,0.00,,SCT028,0.00,VWS V14.01,2013-01-06 20:28:00,
2013-01-06 14:43:00,31.0,23.4,30.14,NNW,333,5.0,11.2,73,0.00,,SCT028,0.00,VWS V14.01,2013-01-06 20:43:00,
2013-01-06 14:58:00,30.9,23.0,30.16,NNW,333,5.0,5.0,72,0.00,,SCT028,0.00,VWS V14.01,2013-01-06 20:58:00,
2013-01-06 15:13:00,30.3,23.0,30.17,NNW,333,5.0,5.0,74,0.00,,CLR,0.00,VWS V14.01,2013-01-06 21:13:00,
2013-01-06 15:28:00,29.7,22.8,30.17,NNW,333,5.0,5.0,75,0.00,,SCT029,0.00,VWS V14.01,2013-01-06 21:28:00,
2013-01-06 15:43:00,28.9,22.3,30.18,NNW,333,5.0,5.0,76,0.00,,SCT029,0.00,VWS V14.01,2013-01-06 21:43:00,
2013-01-06 15:58:00,28.3,21.7,30.19,SSW,213,2.5,8.8,76,0.00,,SCT028,0.00,VWS V14.01,2013-01-06 21:58:00,
2013-01-06 16:13:00,27.7,21.4,30.20,SSW,212,0.0,7.5,77,0.00,,BKN028,0.00,VWS V14.01,2013-01-06 22:13:00,
2013-01-06 16:28:00,26.8,20.9,30.20,West,266,5.0,6.2,78,0.00,,SCT028,0.00,VWS V14.01,2013-01-06 22:28:00,
2013-01-06 16:43:00,26.0,20.4,30.21,SW,222,1.2,5.0,79,0.00,,SCT028,0.00,VWS V14.01,2013-01-06 22:43:00,
2013-01-06 16:58:00,25.5,20.2,30.21,WNW,284,0.0,5.0,80,0.00,,CLR,0.00,VWS V14.01,2013-01-06 22:58:00,
2013-01-06 17:13:00,25.0,20.0,30.22,SW,214,0.0,7.5,81,0.00,,CLR,0.00,VWS V14.01,2013-01-06 23:13:00,
2013-01-06 17:28:00,24.6,19.6,30.22,SW,225,0.0,2.5,81,0.00,,CLR,0.00,VWS V14.01,2013-01-06 23:28:00,
2013-01-06 17:43:00,24.2,19.5,30.23,SW,225,0.0,0.0,82,0.00,,CLR,0.00,VWS V14.01,2013-01-06 23:43:00,
2013-01-06 17:58:00,23.7,19.0,30.23,SW,225,0.0,0.0,82,0.00,,CLR,0.00,VWS V14.01,2013-01-06 23:58:00,
2013-01-06 18:13:00,23.0,18.6,30.23,SW,225,0.0,0.0,83,0.00,,CLR,0.00,VWS V14.01,2013-01-07 00:13:00,
2013-01-06 18:28:00,22.4,18.3,30.23,SW,225,0.0,0.0,84,0.00,,CLR,0.00,VWS V14.01,2013-01-07 00:28:00,
2013-01-06 18:43:00,21.5,17.4,30.22,SW,225,0.0,0.0,84,0.00,,CLR,0.00,VWS V14.01,2013-01-07 00:43:00,
2013-01-06 18:58:00,20.1,16.3,30.22,SW,225,0.0,0.0,85,0.00,,CLR,0.00,VWS V14.01,2013-01-07 00:58:00,
2013-01-06 19:13:00,19.3,15.8,30.23,SW,225,0.0,0.0,86,0.00,,CLR,0.00,VWS V14.01,2013-01-07 01:13:00,
2013-01-06 19:28:00,18.1,14.9,30.24,SW,225,0.0,0.0,87,0.00,,CLR,0.00,VWS V14.01,2013-01-07 01:28:00,
2013-01-06 19:43:00,17.5,14.6,30.24,SW,225,0.0,0.0,88,0.00,,CLR,0.00,VWS V14.01,2013-01-07 01:43:00,
2013-01-06 19:58:00,17.2,14.5,30.24,SW,225,0.0,0.0,89,0.00,,CLR,0.00,VWS V14.01,2013-01-07 01:58:00,
2013-01-06 20:13:00,17.4,15.0,30.23,SW,225,0.0,0.0,90,0.00,,CLR,0.00,VWS V14.01,2013-01-07 02:13:00,
2013-01-06 20:28:00,16.5,13.6,30.23,SW,225,0.0,0.0,88,0.00,,CLR,0.00,VWS V14.01,2013-01-07 02:28:00,
2013-01-06 20:43:00,16.1,13.4,30.23,SW,225,0.0,0.0,89,0.00,,CLR,0.00,VWS V14.01,2013-01-07 02:43:00,
2013-01-06 20:58:00,15.2,12.3,30.23,SW,225,0.0,0.0,88,0.00,,CLR,0.00,VWS V14.01,2013-01-07 02:58:00,
2013-01-06 21:13:00,15.0,12.9,30.23,SW,225,0.0,0.0,91,0.00,,CLR,0.00,VWS V14.01,2013-01-07 03:13:00,
2013-01-06 21:28:00,15.1,12.7,30.24,SW,225,0.0,0.0,90,0.00,,CLR,0.00,VWS V14.01,2013-01-07 03:28:00,
2013-01-06 21:43:00,14.0,11.6,30.24,SW,225,0.0,0.0,90,0.00,,CLR,0.00,VWS V14.01,2013-01-07 03:43:00,
2013-01-06 21:58:00,13.2,10.8,30.24,SW,225,0.0,0.0,90,0.00,,CLR,0.00,VWS V14.01,2013-01-07 03:58:00,
2013-01-06 22:13:00,12.5,9.9,30.24,SW,225,0.0,0.0,89,0.00,,CLR,0.00,VWS V14.01,2013-01-07 04:13:00,
2013-01-06 22:28:00,12.9,10.8,30.25,SW,225,0.0,0.0,91,0.00,,CLR,0.00,VWS V14.01,2013-01-07 04:28:00,
2013-01-06 22:43:00,13.1,11.0,30.24,SW,225,0.0,0.0,91,0.00,,CLR,0.00,VWS V14.01,2013-01-07 04:43:00,
2013-01-06 22:58:00,12.8,10.7,30.25,SW,225,0.0,0.0,91,0.00,,CLR,0.00,VWS V14.01,2013-01-07 04:58:00,
2013-01-06 23:13:00,11.8,9.4,30.24,SW,225,0.0,0.0,90,0.00,,CLR,0.00,VWS V14.01,2013-01-07 05:13:00,
2013-01-06 23:28:00,10.7,8.1,30.24,SW,225,0.0,0.0,89,0.00,,CLR,0.00,VWS V14.01,2013-01-07 05:28:00,
2013-01-06 23:43:00,10.1,7.8,30.24,SW,225,0.0,0.0,90,0.00,,CLR,0.00,VWS V14.01,2013-01-07 05:43:00,
2013-01-06 23:58:00,9.8,7.5,30.24,SW,225,0.0,0.0,90,0.00,,CLR,0.00,VWS V14.01,2013-01-07 05:58:00,